Time;durP1;ratioP1;P1;durP2;ratioP2;P2;SDS_P1;SDS_P2;PMS_P1;PMS_P2;Temp;Humidity;BMP_temperature;BMP_pressure;BME280_temperature;BME280_humidity;BME280_pressure;Samples;Min_cycle;Max_cycle;Signal;HPM_P1;HPM_P2
2022/02/15 00:01:09;;;;;;;;;;;;;;;;;;5011751;28;19921;-77
2022/02/15 00:03:35;;;;;;;;;;;;;;;;;;5013838;28;19929;-77
2022/02/15 00:06:00;;;;;;;;;;;;;;;;;;5012869;28;19921;-77
2022/02/15 00:08:25;;;;;;;;;;;;;;;;;;5013834;28;19971;-77
2022/02/15 00:10:51;;;;;;;;;;;;;;;;;;5012216;28;19925;-77
2022/02/15 00:13:17;;;;;;;;;;;;;;;;;;5013355;28;19972;-77
2022/02/15 00:15:42;;;;;;;;;;;;;;;;;;5013219;28;20381;-77
2022/02/15 00:18:08;;;;;;;;;;;;;;;;;;5013805;28;20317;-77
2022/02/15 00:20:33;;;;;;;;;;;;;;;;;;5014189;28;19922;-77
2022/02/15 00:22:58;;;;;;;;;;;;;;;;;;5014132;28;19921;-75
2022/02/15 00:25:24;;;;;;;;;;;;;;;;;;5012218;28;20366;-75
2022/02/15 00:27:49;;;;;;;;;;;;;;;;;;5012748;28;20000;-74
2022/02/15 00:30:15;;;;;;;;;;;;;;;;;;5013890;28;20432;-76
2022/02/15 00:32:41;;;;;;;;;;;;;;;;;;5013056;28;19921;-74
2022/02/15 00:35:07;;;;;;;;;;;;;;;;;;5012043;28;19976;-74
2022/02/15 00:37:33;;;;;;;;;;;;;;;;;;5013895;28;19922;-75
2022/02/15 00:39:58;;;;;;;;;;;;;;;;;;5012863;28;19960;-75
2022/02/15 00:42:24;;;;;;;;;;;;;;;;;;5011365;28;19918;-76
2022/02/15 00:44:49;;;;;;;;;;;;;;;;;;5014298;28;20320;-76
2022/02/15 00:47:16;;;;;;;;;;;;;;;;;;5013656;28;19965;-78
2022/02/15 00:49:41;;;;;;;;;;;;;;;;;;5012324;28;19971;-76
2022/02/15 00:52:07;;;;;;;;;;;;;;;;;;5013407;28;19933;-76
2022/02/15 00:54:32;;;;;;;;;;;;;;;;;;5012810;28;20063;-76
2022/02/15 00:56:58;;;;;;;;;;;;;;;;;;5012214;28;20489;-78
2022/02/15 00:59:23;;;;;;;;;;;;;;;;;;5013266;28;19922;-78
2022/02/15 01:01:48;;;;;;;;;;;;;;;;;;5013190;28;19928;-78
2022/02/15 01:04:14;;;;;;;;;;;;;;;;;;5013749;28;19964;-78
2022/02/15 01:06:39;;;;;;;;;;;;;;;;;;5013655;28;19921;-78
2022/02/15 01:09:04;;;;;;;;;;;;;;;;;;5013482;28;19925;-78
2022/02/15 01:11:29;;;;;;;;;;;;;;;;;;5013739;28;20382;-75
2022/02/15 01:13:55;;;;;;;;;;;;;;;;;;5013159;28;19921;-74
2022/02/15 01:16:20;;;;;;;;;;;;;;;;;;5013150;28;19921;-74
2022/02/15 01:18:45;;;;;;;;;;;;;;;;;;5011486;28;19967;-75
2022/02/15 01:21:11;;;;;;;;;;;;;;;;;;5013393;28;19921;-74
2022/02/15 01:23:36;;;;;;;;;;;;;;;;;;5013239;28;19921;-75
2022/02/15 01:26:01;;;;;;;;;;;;;;;;;;5012942;28;19922;-74
2022/02/15 01:28:26;;;;;;;;;;;;;;;;;;5013103;28;19921;-74
2022/02/15 01:30:52;;;;;;;;;;;;;;;;;;5014816;28;20350;-77
2022/02/15 01:33:17;;;;;;;;;;;;;;;;;;5013468;28;19988;-77
2022/02/15 01:35:42;;;;;;;;;;;;;;;;;;5012413;28;19984;-77
2022/02/15 01:38:08;;;;;;;;;;;;;;;;;;5013437;28;20298;-77
2022/02/15 01:40:33;;;;;;;;;;;;;;;;;;5013469;28;20385;-77
2022/02/15 01:42:58;;;;;;;;;;;;;;;;;;5012995;28;19921;-75
2022/02/15 01:45:24;;;;;;;;;;;;;;;;;;5013077;28;19960;-75
2022/02/15 01:47:49;;;;;;;;;;;;;;;;;;5016059;28;20279;-75
2022/02/15 01:50:15;;;;;;;;;;;;;;;;;;5015960;28;20363;-75
2022/02/15 01:52:40;;;;;;;;;;;;;;;;;;5015262;28;19921;-75
2022/02/15 01:55:08;;;;;;;;;;;;;;;;;;5016070;28;19999;-75
2022/02/15 01:57:33;;;;;;;;;;;;;;;;;;5015397;28;20296;-75
2022/02/15 01:59:59;;;;;;;;;;;;;;;;;;5014687;28;19921;-75
2022/02/15 02:02:25;;;;;;;;;;;;;;;;;;5016508;28;19973;-77
2022/02/15 02:07:35;;;;;;;;;;;;;;;;;;5015535;28;19928;-77
2022/02/15 02:10:00;;;;;;;;;;;;;;;;;;5016933;28;19922;-77
2022/02/15 02:12:26;;;;;;;;;;;;;;;;;;5016494;28;20443;-77
2022/02/15 02:14:57;;;;;;;;;;;;;;;;;;5016845;28;19948;-77
2022/02/15 02:17:22;;;;;;;;;;;;;;;;;;5016052;28;19932;-74
2022/02/15 02:19:47;;;;;;;;;;;;;;;;;;5016039;28;20015;-75
2022/02/15 02:22:12;;;;;;;;;;;;;;;;;;5016253;28;19921;-74
2022/02/15 02:24:38;;;;;;;;;;;;;;;;;;5016155;28;19928;-75
2022/02/15 02:27:03;;;;;;;;;;;;;;;;;;5016279;28;19956;-74
2022/02/15 02:29:28;;;;;;;;;;;;;;;;;;5014620;28;19921;-74
2022/02/15 02:31:54;;;;;;;;;;;;;;;;;;5015957;28;19922;-74
2022/02/15 02:34:19;;;;;;;;;;;;;;;;;;5016409;28;20306;-75
2022/02/15 02:36:45;;;;;;;;;;;;;;;;;;5015790;28;19964;-75
2022/02/15 02:39:10;;;;;;;;;;;;;;;;;;5013589;28;19922;-75
2022/02/15 02:41:35;;;;;;;;;;;;;;;;;;5015962;28;19930;-75
2022/02/15 02:44:01;;;;;;;;;;;;;;;;;;5015887;28;20434;-75
2022/02/15 02:46:26;;;;;;;;;;;;;;;;;;5015815;28;19928;-74
2022/02/15 02:48:51;;;;;;;;;;;;;;;;;;5015959;28;19921;-75
2022/02/15 02:51:16;;;;;;;;;;;;;;;;;;5010364;28;20386;-74
2022/02/15 02:53:42;;;;;;;;;;;;;;;;;;5015931;28;19956;-74
2022/02/15 02:56:07;;;;;;;;;;;;;;;;;;5015749;28;19949;-75
2022/02/15 02:58:32;;;;;;;;;;;;;;;;;;5015262;28;19921;-75
2022/02/15 03:00:58;;;;;;;;;;;;;;;;;;5015481;28;19980;-74
2022/02/15 03:03:23;;;;;;;;;;;;;;;;;;5015564;28;19925;-75
2022/02/15 03:05:48;;;;;;;;;;;;;;;;;;5015129;28;20449;-75
2022/02/15 03:08:13;;;;;;;;;;;;;;;;;;5015361;28;19944;-75
2022/02/15 03:10:39;;;;;;;;;;;;;;;;;;5014569;28;20303;-75
2022/02/15 03:13:04;;;;;;;;;;;;;;;;;;5013891;28;19921;-75
2022/02/15 03:15:29;;;;;;;;;;;;;;;;;;5015594;28;19922;-74
2022/02/15 03:17:54;;;;;;;;;;;;;;;;;;5015063;28;19971;-75
2022/02/15 03:20:20;;;;;;;;;;;;;;;;;;5015446;28;20282;-75
2022/02/15 03:22:45;;;;;;;;;;;;;;;;;;5015028;28;19922;-75
2022/02/15 03:25:10;;;;;;;;;;;;;;;;;;5015546;28;19921;-75
2022/02/15 03:27:36;;;;;;;;;;;;;;;;;;5014272;28;19917;-75
2022/02/15 03:30:01;;;;;;;;;;;;;;;;;;5013985;28;20337;-74
2022/02/15 03:32:26;;;;;;;;;;;;;;;;;;5016145;28;20013;-78
2022/02/15 03:34:51;;;;;;;;;;;;;;;;;;5014376;28;19921;-78
2022/02/15 03:37:17;;;;;;;;;;;;;;;;;;5014486;28;19925;-77
2022/02/15 03:39:42;;;;;;;;;;;;;;;;;;5015267;28;19928;-78
2022/02/15 03:44:53;;;;;;;;;;;;;;;;;;5013875;28;20053;-77
2022/02/15 03:47:18;;;;;;;;;;;;;;;;;;5013366;28;20340;-77
2022/02/15 03:49:44;;;;;;;;;;;;;;;;;;5014701;28;19921;-77
2022/02/15 03:52:09;;;;;;;;;;;;;;;;;;5013982;28;20000;-78
2022/02/15 03:54:35;;;;;;;;;;;;;;;;;;5013514;28;19921;-78
2022/02/15 03:57:00;;;;;;;;;;;;;;;;;;5013692;28;20393;-74
2022/02/15 03:59:25;;;;;;;;;;;;;;;;;;5013647;28;19930;-74
2022/02/15 04:01:50;;;;;;;;;;;;;;;;;;5014469;28;19976;-74
2022/02/15 04:04:16;;;;;;;;;;;;;;;;;;5001662;28;19976;-74
2022/02/15 04:06:41;;;;;;;;;;;;;;;;;;5014442;28;19917;-74
2022/02/15 04:09:07;;;;;;;;;;;;;;;;;;5013385;28;19969;-75
2022/02/15 04:11:32;;;;;;;;;;;;;;;;;;5013037;28;19967;-74
2022/02/15 04:13:58;;;;;;;;;;;;;;;;;;5013483;28;20012;-74
2022/02/15 04:16:24;;;;;;;;;;;;;;;;;;5014098;28;20336;-74
2022/02/15 04:18:49;;;;;;;;;;;;;;;;;;5013724;28;19975;-74
2022/02/15 04:21:15;;;;;;;;;;;;;;;;;;5014465;28;20330;-74
2022/02/15 04:23:41;;;;;;;;;;;;;;;;;;5012862;28;19928;-74
2022/02/15 04:26:06;;;;;;;;;;;;;;;;;;5013832;28;20305;-74
2022/02/15 04:28:31;;;;;;;;;;;;;;;;;;5013882;28;19926;-74
2022/02/15 04:30:57;;;;;;;;;;;;;;;;;;5016168;28;19921;-74
2022/02/15 04:33:22;;;;;;;;;;;;;;;;;;5014275;28;19922;-74
2022/02/15 04:35:47;;;;;;;;;;;;;;;;;;5013591;28;19926;-74
2022/02/15 04:38:13;;;;;;;;;;;;;;;;;;5013630;28;20092;-75
2022/02/15 04:40:38;;;;;;;;;;;;;;;;;;5013678;28;19925;-75
2022/02/15 04:43:04;;;;;;;;;;;;;;;;;;5013108;28;19921;-74
2022/02/15 04:45:29;;;;;;;;;;;;;;;;;;5013277;28;19925;-74
2022/02/15 04:47:54;;;;;;;;;;;;;;;;;;5013980;28;19968;-75
2022/02/15 04:50:19;;;;;;;;;;;;;;;;;;5013706;28;19960;-74
2022/02/15 04:52:45;;;;;;;;;;;;;;;;;;5013948;28;19975;-75
2022/02/15 04:55:10;;;;;;;;;;;;;;;;;;5013235;28;20037;-75
2022/02/15 04:57:35;;;;;;;;;;;;;;;;;;5013472;28;19921;-75
2022/02/15 05:00:01;;;;;;;;;;;;;;;;;;5012403;28;19933;-75
2022/02/15 05:02:26;;;;;;;;;;;;;;;;;;5013115;28;20378;-75
2022/02/15 05:04:53;;;;;;;;;;;;;;;;;;5014072;28;19956;-74
2022/02/15 05:07:19;;;;;;;;;;;;;;;;;;5013583;28;19921;-75
2022/02/15 05:09:44;;;;;;;;;;;;;;;;;;5012716;28;20008;-75
2022/02/15 05:12:10;;;;;;;;;;;;;;;;;;5013107;28;20381;-74
2022/02/15 05:14:36;;;;;;;;;;;;;;;;;;5012574;28;19922;-75
2022/02/15 05:17:01;;;;;;;;;;;;;;;;;;5013265;28;19917;-75
2022/02/15 05:19:27;;;;;;;;;;;;;;;;;;5013374;28;19917;-74
2022/02/15 05:21:52;;;;;;;;;;;;;;;;;;5012740;28;19925;-75
2022/02/15 05:24:17;;;;;;;;;;;;;;;;;;5013088;28;19932;-75
2022/02/15 05:26:42;;;;;;;;;;;;;;;;;;5013188;28;20457;-74
2022/02/15 05:29:08;;;;;;;;;;;;;;;;;;5012952;28;19929;-75
2022/02/15 05:31:33;;;;;;;;;;;;;;;;;;5013009;28;19921;-75
2022/02/15 05:33:59;;;;;;;;;;;;;;;;;;5013407;28;19918;-74
2022/02/15 05:36:25;;;;;;;;;;;;;;;;;;5013155;28;19921;-75
2022/02/15 05:38:50;;;;;;;;;;;;;;;;;;5011293;28;20004;-75
2022/02/15 05:41:15;;;;;;;;;;;;;;;;;;5009751;28;19917;-75
2022/02/15 05:43:41;;;;;;;;;;;;;;;;;;5013210;28;20365;-74
2022/02/15 05:46:06;;;;;;;;;;;;;;;;;;5013048;28;20409;-75
2022/02/15 05:48:31;;;;;;;;;;;;;;;;;;5013058;28;19917;-75
2022/02/15 05:50:56;;;;;;;;;;;;;;;;;;5013219;28;19937;-77
2022/02/15 05:53:26;;;;;;;;;;;;;;;;;;5013025;28;19956;-77
2022/02/15 05:55:52;;;;;;;;;;;;;;;;;;5013361;28;19921;-77
2022/02/15 05:58:18;;;;;;;;;;;;;;;;;;5013196;28;19964;-77
2022/02/15 06:00:43;;;;;;;;;;;;;;;;;;5012960;28;19976;-77
2022/02/15 06:05:53;;;;;;;;;;;;;;;;;;5011653;28;19932;-75
2022/02/15 06:08:18;;;;;;;;;;;;;;;;;;5012880;28;19917;-75
2022/02/15 06:10:46;;;;;;;;;;;;;;;;;;5012656;28;19928;-75
2022/02/15 06:13:11;;;;;;;;;;;;;;;;;;5011061;28;19918;-75
2022/02/15 06:15:36;;;;;;;;;;;;;;;;;;5011765;28;19928;-75
2022/02/15 06:18:01;;;;;;;;;;;;;;;;;;5012059;28;20289;-75
2022/02/15 06:20:27;;;;;;;;;;;;;;;;;;5012667;28;19937;-75
2022/02/15 06:22:52;;;;;;;;;;;;;;;;;;5012246;28;19921;-75
2022/02/15 06:25:18;;;;;;;;;;;;;;;;;;5012684;28;19925;-75
2022/02/15 06:27:43;;;;;;;;;;;;;;;;;;5012321;28;19979;-75
2022/02/15 06:30:09;;;;;;;;;;;;;;;;;;5012400;28;19933;-75
2022/02/15 06:32:34;;;;;;;;;;;;;;;;;;5011641;28;20457;-78
2022/02/15 06:35:00;;;;;;;;;;;;;;;;;;5013204;28;19971;-78
2022/02/15 06:37:25;;;;;;;;;;;;;;;;;;5015901;28;19926;-78
2022/02/15 06:39:50;;;;;;;;;;;;;;;;;;5016404;28;19929;-77
2022/02/15 06:42:15;;;;;;;;;;;;;;;;;;5015221;28;20023;-75
2022/02/15 06:44:41;;;;;;;;;;;;;;;;;;5015066;28;20275;-75
2022/02/15 06:47:06;;;;;;;;;;;;;;;;;;5015308;28;19926;-76
2022/02/15 06:49:31;;;;;;;;;;;;;;;;;;5015438;28;19965;-75
2022/02/15 06:51:57;;;;;;;;;;;;;;;;;;5015922;28;20011;-76
2022/02/15 06:54:22;;;;;;;;;;;;;;;;;;5015836;28;19925;-76
2022/02/15 06:56:47;;;;;;;;;;;;;;;;;;5015222;28;19921;-76
2022/02/15 06:59:13;;;;;;;;;;;;;;;;;;5014874;28;20394;-75
2022/02/15 07:01:40;;;;;;;;;;;;;;;;;;5012187;28;19956;-78
2022/02/15 07:04:06;;;;;;;;;;;;;;;;;;5014311;28;19921;-78
2022/02/15 07:06:31;;;;;;;;;;;;;;;;;;5015962;28;20354;-79
2022/02/15 07:08:56;;;;;;;;;;;;;;;;;;5015747;28;19975;-78
2022/02/15 07:11:22;;;;;;;;;;;;;;;;;;5015849;28;19921;-79
2022/02/15 07:13:50;;;;;;;;;;;;;;;;;;5014507;28;19929;-78
2022/02/15 07:16:16;;;;;;;;;;;;;;;;;;5015326;28;20350;-78
2022/02/15 07:18:43;;;;;;;;;;;;;;;;;;5014715;28;19965;-76
2022/02/15 07:21:08;;;;;;;;;;;;;;;;;;5015070;28;20267;-76
2022/02/15 07:23:33;;;;;;;;;;;;;;;;;;5014815;28;19925;-75
2022/02/15 07:25:59;;;;;;;;;;;;;;;;;;5013863;28;19991;-75
2022/02/15 07:28:24;;;;;;;;;;;;;;;;;;5013792;28;19921;-75
2022/02/15 07:30:49;;;;;;;;;;;;;;;;;;5018420;28;20293;-75
2022/02/15 07:33:14;;;;;;;;;;;;;;;;;;5015735;28;20004;-75
2022/02/15 07:35:40;;;;;;;;;;;;;;;;;;5014983;28;20289;-77
2022/02/15 07:38:05;;;;;;;;;;;;;;;;;;5014735;28;19953;-77
2022/02/15 07:40:30;;;;;;;;;;;;;;;;;;5014961;28;19926;-76
2022/02/15 07:42:56;;;;;;;;;;;;;;;;;;5015312;28;19925;-77
2022/02/15 07:45:21;;;;;;;;;;;;;;;;;;5014048;28;19921;-77
2022/02/15 07:47:50;;;;;;;;;;;;;;;;;;5014869;28;19924;-77
2022/02/15 07:50:16;;;;;;;;;;;;;;;;;;5013487;28;19922;-76
2022/02/15 07:52:41;;;;;;;;;;;;;;;;;;5013497;28;19928;-77
2022/02/15 07:55:06;;;;;;;;;;;;;;;;;;5014347;28;19926;-77
2022/02/15 07:57:32;;;;;;;;;;;;;;;;;;5019055;28;19949;-77
2022/02/15 07:59:57;;;;;;;;;;;;;;;;;;5014778;28;20059;-77
2022/02/15 08:02:22;;;;;;;;;;;;;;;;;;5014740;28;20393;-79
2022/02/15 08:04:48;;;;;;;;;;;;;;;;;;5014331;28;19929;-79
2022/02/15 08:07:13;;;;;;;;;;;;;;;;;;5014211;28;19922;-79
2022/02/15 08:09:38;;;;;;;;;;;;;;;;;;5013405;28;19918;-78
2022/02/15 08:12:09;;;;;;;;;;;;;;;;;;5014332;28;19992;-79
2022/02/15 08:14:34;;;;;;;;;;;;;;;;;;5013390;28;20333;-76
2022/02/15 08:17:00;;;;;;;;;;;;;;;;;;5013819;28;19921;-76
2022/02/15 08:19:26;;;;;;;;;;;;;;;;;;5014348;28;20427;-76
2022/02/15 08:21:54;;;;;;;;;;;;;;;;;;5014355;28;19928;-76
2022/02/15 08:24:19;;;;;;;;;;;;;;;;;;5014323;28;20321;-76
2022/02/15 08:26:44;;;;;;;;;;;;;;;;;;5014416;28;19922;-77
2022/02/15 08:29:12;;;;;;;;;;;;;;;;;;5014149;28;20465;-76
2022/02/15 08:31:37;;;;;;;;;;;;;;;;;;5015805;28;19960;-76
2022/02/15 08:34:03;;;;;;;;;;;;;;;;;;5013346;28;19924;-76
2022/02/15 08:36:28;;;;;;;;;;;;;;;;;;5014104;28;19922;-76
2022/02/15 08:38:53;;;;;;;;;;;;;;;;;;5014141;28;20330;-76
2022/02/15 08:41:19;;;;;;;;;;;;;;;;;;5013628;28;19929;-75
2022/02/15 08:43:44;;;;;;;;;;;;;;;;;;5014321;28;19922;-76
2022/02/15 08:46:09;;;;;;;;;;;;;;;;;;5012973;28;19922;-77
2022/02/15 08:48:34;;;;;;;;;;;;;;;;;;5014189;28;19922;-77
2022/02/15 08:51:00;;;;;;;;;;;;;;;;;;5014011;28;19922;-76
2022/02/15 08:53:25;;;;;;;;;;;;;;;;;;5013988;28;20003;-76
2022/02/15 08:55:51;;;;;;;;;;;;;;;;;;5013740;28;20385;-77
2022/02/15 08:58:17;;;;;;;;;;;;;;;;;;5013859;28;19925;-77
2022/02/15 09:00:42;;;;;;;;;;;;;;;;;;5014007;28;19924;-77
2022/02/15 09:03:07;;;;;;;;;;;;;;;;;;5013938;28;20428;-79
2022/02/15 09:05:33;;;;;;;;;;;;;;;;;;5009913;28;20079;-78
2022/02/15 09:07:58;;;;;;;;;;;;;;;;;;5010541;28;20002;-78
2022/02/15 09:10:23;;;;;;;;;;;;;;;;;;5018719;28;20366;-78
2022/02/15 09:12:48;;;;;;;;;;;;;;;;;;5013099;28;19918;-78
2022/02/15 09:15:14;;;;;;;;;;;;;;;;;;5021173;28;20362;-78
2022/02/15 09:17:40;;;;;;;;;;;;;;;;;;5012408;28;19929;-78
2022/02/15 09:20:05;;;;;;;;;;;;;;;;;;5011989;28;19917;-78
2022/02/15 09:22:31;;;;;;;;;;;;;;;;;;5013139;28;19963;-78
2022/02/15 09:24:56;;;;;;;;;;;;;;;;;;5013312;28;19921;-78
2022/02/15 09:27:21;;;;;;;;;;;;;;;;;;5014774;28;20012;-78
2022/02/15 09:29:47;;;;;;;;;;;;;;;;;;5011065;28;19944;-78
2022/02/15 09:32:12;;;;;;;;;;;;;;;;;;5012285;28;19972;-78
2022/02/15 09:34:37;;;;;;;;;;;;;;;;;;5012058;28;20275;-78
2022/02/15 09:37:03;;;;;;;;;;;;;;;;;;5011289;28;19921;-78
2022/02/15 09:39:28;;;;;;;;;;;;;;;;;;5012374;28;19983;-79
2022/02/15 09:41:54;;;;;;;;;;;;;;;;;;5012902;28;20063;-78
2022/02/15 09:44:19;;;;;;;;;;;;;;;;;;5011286;28;19925;-78
2022/02/15 09:46:45;;;;;;;;;;;;;;;;;;5012681;28;19929;-79
2022/02/15 09:49:48;;;;;;;;;;;;;;;;;;5010929;28;19953;-78
2022/02/15 09:51:55;;;;;;;;;;;;;;;;;;5012117;28;20059;-78
2022/02/15 09:54:20;;;;;;;;;;;;;;;;;;5011045;28;20401;-78
2022/02/15 09:56:46;;;;;;;;;;;;;;;;;;5016963;28;19924;-78
2022/02/15 09:59:13;;;;;;;;;;;;;;;;;;5012237;28;20370;-78
2022/02/15 10:01:38;;;;;;;;;;;;;;;;;;5012805;28;19948;-77
2022/02/15 10:04:06;;;;;;;;;;;;;;;;;;5012771;28;20358;-77
2022/02/15 10:06:33;;;;;;;;;;;;;;;;;;5012934;28;19918;-78
2022/02/15 10:08:59;;;;;;;;;;;;;;;;;;5015245;28;19972;-77
2022/02/15 10:11:32;;;;;;;;;;;;;;;;;;5015797;28;19953;-77
2022/02/15 10:13:58;;;;;;;;;;;;;;;;;;5015679;28;19921;-77
2022/02/15 10:16:23;;;;;;;;;;;;;;;;;;5015754;28;19922;-78
2022/02/15 10:18:54;;;;;;;;;;;;;;;;;;5016121;28;19913;-77
2022/02/15 10:21:20;;;;;;;;;;;;;;;;;;5013965;28;20367;-77
2022/02/15 10:23:49;;;;;;;;;;;;;;;;;;5016112;28;20892;-78
2022/02/15 10:26:15;;;;;;;;;;;;;;;;;;5016293;28;19917;-78
2022/02/15 10:28:40;;;;;;;;;;;;;;;;;;5014570;28;19983;-78
2022/02/15 10:31:05;;;;;;;;;;;;;;;;;;5015851;28;20408;-78
2022/02/15 10:33:34;;;;;;;;;;;;;;;;;;5014110;28;20025;-78
2022/02/15 10:36:01;;;;;;;;;;;;;;;;;;5014850;28;20417;-78
2022/02/15 10:38:30;;;;;;;;;;;;;;;;;;5027795;28;19925;-78
2022/02/15 10:41:02;;;;;;;;;;;;;;;;;;5014022;28;20452;-77
2022/02/15 10:43:28;;;;;;;;;;;;;;;;;;5015359;28;19930;-78
2022/02/15 10:45:53;;;;;;;;;;;;;;;;;;5015518;28;20290;-78
2022/02/15 10:48:28;;;;;;;;;;;;;;;;;;5015255;28;19925;-78
2022/02/15 10:50:54;;;;;;;;;;;;;;;;;;5012238;28;20004;-78
2022/02/15 10:53:19;;;;;;;;;;;;;;;;;;5013832;28;20346;-78
2022/02/15 10:55:44;;;;;;;;;;;;;;;;;;5013991;28;20278;-78
2022/02/15 10:58:10;;;;;;;;;;;;;;;;;;5013923;28;19925;-78
2022/02/15 11:00:35;;;;;;;;;;;;;;;;;;5013877;28;19929;-79
2022/02/15 11:03:00;;;;;;;;;;;;;;;;;;5015129;28;19917;-78
2022/02/15 11:05:26;;;;;;;;;;;;;;;;;;5015219;28;20287;-78
2022/02/15 11:07:51;;;;;;;;;;;;;;;;;;5013364;28;20428;-78
2022/02/15 11:10:37;;;;;;;;;;;;;;;;;;5013537;28;19921;-79
2022/02/15 11:13:02;;;;;;;;;;;;;;;;;;5013512;28;19921;-78
2022/02/15 11:15:27;;;;;;;;;;;;;;;;;;5013757;28;20146;-79
2022/02/15 11:18:19;;;;;;;;;;;;;;;;;;5014570;28;19928;-78
2022/02/15 11:20:51;;;;;;;;;;;;;;;;;;5001293;28;19969;-78
2022/02/15 11:23:17;;;;;;;;;;;;;;;;;;5015300;28;19964;-78
2022/02/15 11:25:42;;;;;;;;;;;;;;;;;;5014033;28;19933;-79
2022/02/15 11:28:20;;;;;;;;;;;;;;;;;;5011055;28;19988;-78
2022/02/15 11:30:52;;;;;;;;;;;;;;;;;;5008386;28;20452;-79
2022/02/15 11:33:28;;;;;;;;;;;;;;;;;;5023428;28;19921;-79
2022/02/15 11:36:06;;;;;;;;;;;;;;;;;;5010392;28;19921;-79
2022/02/15 11:38:31;;;;;;;;;;;;;;;;;;5006422;28;19917;-78
2022/02/15 11:40:57;;;;;;;;;;;;;;;;;;5016937;28;19976;-79
2022/02/15 11:43:23;;;;;;;;;;;;;;;;;;5011277;28;20020;-79
2022/02/15 11:45:48;;;;;;;;;;;;;;;;;;5011476;28;19976;-79
2022/02/15 11:48:13;;;;;;;;;;;;;;;;;;5010651;28;19972;-79
2022/02/15 11:50:43;;;;;;;;;;;;;;;;;;5007899;28;20393;-79
2022/02/15 11:53:08;;;;;;;;;;;;;;;;;;5009703;28;20278;-79
2022/02/15 11:55:34;;;;;;;;;;;;;;;;;;5025515;28;20267;-80
2022/02/15 11:57:59;;;;;;;;;;;;;;;;;;5013657;28;19924;-79
2022/02/15 12:00:31;;;;;;;;;;;;;;;;;;5011560;28;19922;-80
2022/02/15 12:02:56;;;;;;;;;;;;;;;;;;5011556;28;19925;-80
2022/02/15 12:05:26;;;;;;;;;;;;;;;;;;5016979;28;19918;-80
2022/02/15 12:07:52;;;;;;;;;;;;;;;;;;5011478;28;19924;-80
2022/02/15 12:10:17;;;;;;;;;;;;;;;;;;5010340;28;19995;-80
2022/02/15 12:12:44;;;;;;;;;;;;;;;;;;5012815;28;20390;-80
2022/02/15 12:15:10;;;;;;;;;;;;;;;;;;5016809;28;19928;-80
2022/02/15 12:17:42;;;;;;;;;;;;;;;;;;5011214;28;19930;-80
2022/02/15 12:20:08;;;;;;;;;;;;;;;;;;5010293;28;19917;-80
2022/02/15 12:22:36;;;;;;;;;;;;;;;;;;5012770;28;19964;-80
2022/02/15 12:25:02;;;;;;;;;;;;;;;;;;5012979;28;19975;-80
2022/02/15 12:27:27;;;;;;;;;;;;;;;;;;5015089;28;20342;-80
2022/02/15 12:29:54;;;;;;;;;;;;;;;;;;5009928;28;20004;-81
2022/02/15 12:32:23;;;;;;;;;;;;;;;;;;5014616;28;19930;-80
2022/02/15 12:34:49;;;;;;;;;;;;;;;;;;5011898;28;20413;-79
2022/02/15 12:37:18;;;;;;;;;;;;;;;;;;5013107;28;19921;-81
2022/02/15 12:39:44;;;;;;;;;;;;;;;;;;5009067;28;19956;-80
2022/02/15 12:42:10;;;;;;;;;;;;;;;;;;5012638;28;19953;-80
2022/02/15 12:44:36;;;;;;;;;;;;;;;;;;5012999;28;21415;-80
2022/02/15 12:47:01;;;;;;;;;;;;;;;;;;5014903;28;19928;-80
2022/02/15 12:49:26;;;;;;;;;;;;;;;;;;5024980;28;19918;-80
2022/02/15 12:51:52;;;;;;;;;;;;;;;;;;5012444;28;19925;-80
2022/02/15 12:54:19;;;;;;;;;;;;;;;;;;5012017;28;19925;-80
2022/02/15 12:56:45;;;;;;;;;;;;;;;;;;5010782;28;20020;-80
2022/02/15 12:59:11;;;;;;;;;;;;;;;;;;5010288;28;19930;-80
2022/02/15 13:01:37;;;;;;;;;;;;;;;;;;5010048;28;19925;-80
2022/02/15 13:04:07;;;;;;;;;;;;;;;;;;5011875;28;19917;-80
2022/02/15 13:06:35;;;;;;;;;;;;;;;;;;5012317;28;20016;-79
2022/02/15 13:09:00;;;;;;;;;;;;;;;;;;5010138;28;20031;-80
2022/02/15 13:11:26;;;;;;;;;;;;;;;;;;5012069;28;19961;-80
2022/02/15 13:13:51;;;;;;;;;;;;;;;;;;5011114;28;19917;-80
2022/02/15 13:16:16;;;;;;;;;;;;;;;;;;5012045;28;19921;-80
2022/02/15 13:18:46;;;;;;;;;;;;;;;;;;5010075;28;20460;-80
2022/02/15 13:21:14;;;;;;;;;;;;;;;;;;5010221;28;19921;-80
2022/02/15 13:23:52;;;;;;;;;;;;;;;;;;5011173;28;19925;-80
2022/02/15 13:26:17;;;;;;;;;;;;;;;;;;5010605;28;19925;-80
2022/02/15 13:28:43;;;;;;;;;;;;;;;;;;5011544;28;19922;-79
2022/02/15 13:31:08;;;;;;;;;;;;;;;;;;5010662;28;20282;-79
2022/02/15 13:33:41;;;;;;;;;;;;;;;;;;5012682;28;20012;-79
2022/02/15 13:36:06;;;;;;;;;;;;;;;;;;5012643;28;19921;-79
2022/02/15 13:38:31;;;;;;;;;;;;;;;;;;5027923;28;20421;-80
2022/02/15 13:40:58;;;;;;;;;;;;;;;;;;5010309;28;20330;-80
2022/02/15 13:43:27;;;;;;;;;;;;;;;;;;5016250;28;19932;-77
2022/02/15 13:45:52;;;;;;;;;;;;;;;;;;5008558;28;19931;-77
2022/02/15 13:48:17;;;;;;;;;;;;;;;;;;5015631;28;19935;-77
2022/02/15 13:50:43;;;;;;;;;;;;;;;;;;5013741;28;20409;-76
2022/02/15 13:53:08;;;;;;;;;;;;;;;;;;5016521;28;19921;-77
2022/02/15 13:55:33;;;;;;;;;;;;;;;;;;5016394;28;19918;-77
2022/02/15 13:57:58;;;;;;;;;;;;;;;;;;5016154;28;19917;-77
2022/02/15 14:00:24;;;;;;;;;;;;;;;;;;5013628;28;19922;-77
2022/02/15 14:02:51;;;;;;;;;;;;;;;;;;5015793;28;19921;-77
2022/02/15 14:05:17;;;;;;;;;;;;;;;;;;5016224;28;20320;-76
2022/02/15 14:07:42;;;;;;;;;;;;;;;;;;5015989;28;19921;-77
2022/02/15 14:10:08;;;;;;;;;;;;;;;;;;5013493;28;20390;-77
2022/02/15 14:12:40;;;;;;;;;;;;;;;;;;5016052;28;19967;-77
2022/02/15 14:15:09;;;;;;;;;;;;;;;;;;5014933;28;19917;-76
2022/02/15 14:17:38;;;;;;;;;;;;;;;;;;5014373;28;20029;-77
2022/02/15 14:20:04;;;;;;;;;;;;;;;;;;5013446;28;19922;-77
2022/02/15 14:22:30;;;;;;;;;;;;;;;;;;5015642;28;19925;-77
2022/02/15 14:24:55;;;;;;;;;;;;;;;;;;5021171;28;19921;-77
2022/02/15 14:27:20;;;;;;;;;;;;;;;;;;5014160;28;19943;-76
2022/02/15 14:29:46;;;;;;;;;;;;;;;;;;5012038;28;19930;-76
2022/02/15 14:32:11;;;;;;;;;;;;;;;;;;5014516;28;19921;-79
2022/02/15 14:34:36;;;;;;;;;;;;;;;;;;5014925;28;20329;-79
2022/02/15 14:37:02;;;;;;;;;;;;;;;;;;5015682;28;19918;-78
2022/02/15 14:39:28;;;;;;;;;;;;;;;;;;5011024;28;20386;-78
2022/02/15 14:41:53;;;;;;;;;;;;;;;;;;5015364;28;19928;-79
2022/02/15 14:44:18;;;;;;;;;;;;;;;;;;5015345;28;19921;-76
2022/02/15 14:46:46;;;;;;;;;;;;;;;;;;5015691;28;20393;-77
2022/02/15 14:49:11;;;;;;;;;;;;;;;;;;5011734;28;19926;-79
2022/02/15 14:51:36;;;;;;;;;;;;;;;;;;5015090;28;19918;-79
2022/02/15 14:54:02;;;;;;;;;;;;;;;;;;5015113;28;20393;-79
2022/02/15 14:56:27;;;;;;;;;;;;;;;;;;5015373;28;19983;-78
2022/02/15 14:58:53;;;;;;;;;;;;;;;;;;5014005;28;19914;-78
2022/02/15 15:01:18;;;;;;;;;;;;;;;;;;5015629;28;19955;-79
2022/02/15 15:03:43;;;;;;;;;;;;;;;;;;5013991;28;19952;-79
2022/02/15 15:06:09;;;;;;;;;;;;;;;;;;5014909;28;19928;-79
2022/02/15 15:08:34;;;;;;;;;;;;;;;;;;5014113;28;20011;-78
2022/02/15 15:10:59;;;;;;;;;;;;;;;;;;5012339;28;19929;-78
2022/02/15 15:13:25;;;;;;;;;;;;;;;;;;5014940;28;19925;-76
2022/02/15 15:15:50;;;;;;;;;;;;;;;;;;5014210;28;20449;-78
2022/02/15 15:18:15;;;;;;;;;;;;;;;;;;5012965;28;19929;-79
2022/02/15 15:20:41;;;;;;;;;;;;;;;;;;5015905;28;19922;-78
2022/02/15 15:23:08;;;;;;;;;;;;;;;;;;5014569;28;19967;-78
2022/02/15 15:25:34;;;;;;;;;;;;;;;;;;5014548;28;19933;-78
2022/02/15 15:27:59;;;;;;;;;;;;;;;;;;5014088;28;19929;-78
2022/02/15 15:30:24;;;;;;;;;;;;;;;;;;5016393;28;19929;-80
2022/02/15 15:32:50;;;;;;;;;;;;;;;;;;5014798;28;20436;-79
2022/02/15 15:35:15;;;;;;;;;;;;;;;;;;5013857;28;20000;-80
2022/02/15 15:37:41;;;;;;;;;;;;;;;;;;5016890;28;19925;-80
2022/02/15 15:40:08;;;;;;;;;;;;;;;;;;5011226;28;19944;-80
2022/02/15 15:42:33;;;;;;;;;;;;;;;;;;5013634;28;19922;-80
2022/02/15 15:44:59;;;;;;;;;;;;;;;;;;5013576;28;19926;-80
2022/02/15 15:47:24;;;;;;;;;;;;;;;;;;5013313;28;19952;-79
2022/02/15 15:49:49;;;;;;;;;;;;;;;;;;5011524;28;20278;-80
2022/02/15 15:52:14;;;;;;;;;;;;;;;;;;5013218;28;19921;-80
2022/02/15 15:54:40;;;;;;;;;;;;;;;;;;5013646;28;19953;-80
2022/02/15 15:57:05;;;;;;;;;;;;;;;;;;5012612;28;19921;-80
2022/02/15 15:59:31;;;;;;;;;;;;;;;;;;5010502;28;20019;-80
2022/02/15 16:01:56;;;;;;;;;;;;;;;;;;5010225;28;20270;-80
2022/02/15 16:04:21;;;;;;;;;;;;;;;;;;5013037;28;19932;-80
2022/02/15 16:06:48;;;;;;;;;;;;;;;;;;5011870;28;19922;-79
2022/02/15 16:09:13;;;;;;;;;;;;;;;;;;5010258;28;19925;-79
2022/02/15 16:11:39;;;;;;;;;;;;;;;;;;5013293;28;20008;-80
2022/02/15 16:14:04;;;;;;;;;;;;;;;;;;5012651;28;20274;-80
2022/02/15 16:16:30;;;;;;;;;;;;;;;;;;5012802;28;20370;-79
2022/02/15 16:18:55;;;;;;;;;;;;;;;;;;5012433;28;19964;-79
2022/02/15 16:21:20;;;;;;;;;;;;;;;;;;5011927;28;19927;-80
2022/02/15 16:23:46;;;;;;;;;;;;;;;;;;5012445;28;19936;-79
2022/02/15 16:26:11;;;;;;;;;;;;;;;;;;5012879;28;19917;-80
2022/02/15 16:28:37;;;;;;;;;;;;;;;;;;5011161;28;20294;-80
2022/02/15 16:31:02;;;;;;;;;;;;;;;;;;5010233;28;19926;-79
2022/02/15 16:33:27;;;;;;;;;;;;;;;;;;5012022;28;19921;-79
2022/02/15 16:35:52;;;;;;;;;;;;;;;;;;5010237;28;20020;-79
2022/02/15 16:38:18;;;;;;;;;;;;;;;;;;5012955;28;20341;-80
2022/02/15 16:40:43;;;;;;;;;;;;;;;;;;5009764;28;19917;-79
2022/02/15 16:43:08;;;;;;;;;;;;;;;;;;5026773;28;20724;-80
2022/02/15 16:45:34;;;;;;;;;;;;;;;;;;5011977;28;20363;-79